Hauptseite
METAR-TAF:

METAR-TAF

Flughäfen :

Ghriss, Algerien

Breite: 35-12N, Länge: 000-08E, Höhe: 514 m

Beobachtung

Neuester Wetterbericht von vor 21 Minuten, um 03:00 UTC
Windstille
Temperatur 10°C
Luftfeuchtigkeit 71%
Luftdruck 1019 hPa
Sichtweite 10 km oder mehr
Leicht bewölkt in der Höhe von 3300 ft
Aufgelockert bewölkt in der Höhe von 23000 ft

METAR: DAOV 060300Z 00000KT 9999 FEW033 SCT230 10/05 Q1019

Zeit: 04:21 (03:21 UTC)

Prognose

Neuester Wetterbericht von vor 1 Stunde und 21 Minuten, um 02:00 UTC
Gültige Prognose vom 06 um 03 UTC bis 06 um 12 UTC
Wind 12 kt aus Süd
Sichtweite 10 km oder mehr
keine Wolken unter 1500 m und keine Kumulonimbus oder Gewitterwolken

TAF: DAOV 060200Z 0603/0612 18012KT CAVOK

Wetterbeobachtungen und Prognosen von mehr als 4000 Flughäfen (METAR und TAF Bericht).

Die verfügbaren Stationen werden durch gelbe und rote Markierungen auf der Karte dargestellt.

Führen Sie die Maus auf sie, um den Namen der Station zu sehen.

Darauf klicken, um die Beobachtung von Wetterbeobachtungen und Prognosen zu sehen.

Um die Karte zu ändern : klicken Sie auf den grünen Tasten mit einem schwarzen Kreuz Zum Vergrößern, auf den grünen Button mit einem Gedankenstrich zu verkleinern, oder auf die grünen Pfeile für benachbarte Karten.


METAR-TAF: